createdAt,value
2019-04-14T00:04:34.009Z,59.01
2019-04-14T00:09:40.125Z,59.49
2019-04-14T00:14:46.953Z,58.80
2019-04-14T00:19:52.867Z,58.44
2019-04-14T00:24:59.635Z,58.55
2019-04-14T00:30:09.708Z,57.67
2019-04-14T00:35:25.487Z,58.45
2019-04-14T00:40:36.822Z,57.82
2019-04-14T00:45:52.529Z,59.72
2019-04-14T00:50:55.992Z,60.52
2019-04-14T00:56:02.015Z,58.89
2019-04-14T01:01:09.415Z,58.45
2019-04-14T01:06:16.410Z,57.95
2019-04-14T01:11:22.498Z,57.90
2019-04-14T01:16:29.712Z,58.46
2019-04-14T01:21:35.258Z,59.17
2019-04-14T01:26:41.995Z,58.61
2019-04-14T01:31:47.751Z,58.38
2019-04-14T01:36:54.034Z,58.64
2019-04-14T01:42:04.846Z,58.08
2019-04-14T01:52:34.566Z,60.68
2019-04-14T01:57:50.554Z,59.39
2019-04-14T02:02:57.396Z,59.45
2019-04-14T02:08:04.969Z,58.91
2019-04-14T02:13:13.585Z,58.31
2019-04-14T02:18:20.712Z,58.86
2019-04-14T02:23:27.903Z,59.27
2019-04-14T02:28:36.000Z,59.11
2019-04-14T02:34:07.536Z,59.66
2019-04-14T02:39:23.526Z,59.79
2019-04-14T02:44:32.078Z,59.83
2019-04-14T02:49:41.534Z,59.47
2019-04-14T02:54:59.916Z,58.42
2019-04-14T03:05:20.814Z,58.57
2019-04-14T03:10:31.885Z,60.19
2019-04-14T03:15:39.894Z,59.88
2019-04-14T03:21:03.603Z,59.87
2019-04-14T03:26:25.345Z,61.50
2019-04-14T03:41:54.798Z,63.01
2019-04-14T03:47:08.888Z,64.98
2019-04-14T03:52:17.096Z,66.75
2019-04-14T03:56:57.680Z,67.60
2019-04-14T04:02:05.254Z,66.98
2019-04-14T04:07:12.385Z,66.27
2019-04-14T04:12:20.406Z,67.31
2019-04-14T04:17:47.209Z,69.02
2019-04-14T04:23:23.052Z,69.02
2019-04-14T04:28:56.434Z,67.45
2019-04-14T04:34:14.016Z,67.90
2019-04-14T04:39:23.930Z,69.42
2019-04-14T04:44:33.451Z,70.28
2019-04-14T04:49:40.471Z,71.71
2019-04-14T04:54:47.424Z,70.19
2019-04-14T04:59:56.049Z,72.12
2019-04-14T05:05:03.513Z,71.52
2019-04-14T05:10:26.350Z,70.69
2019-04-14T05:15:55.265Z,69.87
2019-04-14T05:21:21.745Z,70.20
2019-04-14T05:26:28.671Z,71.13
2019-04-14T05:31:35.995Z,70.51
2019-04-14T05:36:45.371Z,72.82
2019-04-14T05:42:01.491Z,72.77
2019-04-14T05:47:04.419Z,71.82
2019-04-14T05:52:12.093Z,72.03
2019-04-14T05:57:17.912Z,72.44
2019-04-14T06:02:28.897Z,72.44
2019-04-14T06:07:38.657Z,72.55
2019-04-14T06:12:48.128Z,72.06
2019-04-14T06:17:54.535Z,72.69
2019-04-14T06:23:02.556Z,71.91
2019-04-14T06:28:09.350Z,74.10
2019-04-14T06:33:24.194Z,72.79
2019-04-14T06:38:33.800Z,73.20
2019-04-14T06:43:48.612Z,72.09
2019-04-14T06:48:48.643Z,73.83
2019-04-14T06:53:54.593Z,74.53
2019-04-14T06:59:01.820Z,73.52
2019-04-14T07:04:08.776Z,73.73
2019-04-14T07:09:16.863Z,72.47
2019-04-14T07:14:23.486Z,71.33
2019-04-14T07:19:34.407Z,73.07
2019-04-14T07:24:39.965Z,72.42
2019-04-14T07:29:58.414Z,73.58
2019-04-14T07:35:21.505Z,73.57
2019-04-14T07:40:45.484Z,72.78
2019-04-14T07:46:18.781Z,72.40
2019-04-14T07:51:32.318Z,73.23
2019-04-14T07:56:57.976Z,74.74
2019-04-14T08:02:25.192Z,73.83
2019-04-14T08:07:32.694Z,73.74
2019-04-14T08:12:38.708Z,73.12
2019-04-14T08:17:44.245Z,73.26
2019-04-14T08:22:50.302Z,73.31
2019-04-14T08:28:01.903Z,74.05
2019-04-14T08:33:08.198Z,73.94
2019-04-14T08:38:14.133Z,73.97
2019-04-14T08:43:30.184Z,73.61
2019-04-14T08:49:10.189Z,73.74
2019-04-14T08:54:40.976Z,72.61
2019-04-14T09:00:21.042Z,71.24
2019-04-14T09:05:44.522Z,75.73
2019-04-14T09:10:53.299Z,75.12
2019-04-14T09:15:59.451Z,73.83
2019-04-14T09:21:08.274Z,72.54
2019-04-14T09:26:15.589Z,73.99
2019-04-14T09:31:21.550Z,74.14
2019-04-14T09:36:27.177Z,73.66
2019-04-14T09:41:33.377Z,73.31
2019-04-14T09:53:15.147Z,73.53
2019-04-14T09:58:21.744Z,72.09
2019-04-14T10:03:29.129Z,72.10
2019-04-14T10:08:34.948Z,70.45
2019-04-14T10:13:41.568Z,71.81
2019-04-14T10:18:49.688Z,71.02
2019-04-14T10:23:55.317Z,71.28
2019-04-14T10:29:04.475Z,69.51
2019-04-14T10:34:10.182Z,69.51
2019-04-14T10:39:16.598Z,68.19
2019-04-14T10:44:22.432Z,69.46
2019-04-14T10:49:30.050Z,68.27
2019-04-14T10:54:37.561Z,68.72
2019-04-14T10:59:43.566Z,69.56
2019-04-14T11:04:53.145Z,69.80
2019-04-14T11:10:00.090Z,69.80
2019-04-14T11:15:07.126Z,69.23
2019-04-14T11:20:14.611Z,68.79
2019-04-14T11:25:20.637Z,69.60
2019-04-14T11:30:26.567Z,69.08
2019-04-14T11:35:43.644Z,69.42
2019-04-14T11:40:59.350Z,69.61
2019-04-14T11:46:08.015Z,68.77
2019-04-14T11:51:19.691Z,68.74
2019-04-14T11:56:25.758Z,69.04
2019-04-14T12:01:54.344Z,70.07
2019-04-14T12:07:18.988Z,70.02
2019-04-14T12:12:25.273Z,70.70
2019-04-14T12:17:30.921Z,68.82
2019-04-14T12:22:40.424Z,68.67
2019-04-14T12:27:46.877Z,67.95
2019-04-14T12:32:53.174Z,68.66
2019-04-14T12:37:58.799Z,69.10
2019-04-14T12:43:25.140Z,68.82
2019-04-14T12:48:45.755Z,69.20
2019-04-14T12:53:54.717Z,69.24
2019-04-14T12:59:19.254Z,69.62
2019-04-14T13:04:27.156Z,69.69
2019-04-14T13:09:33.163Z,69.23
2019-04-14T13:14:41.449Z,68.71
2019-04-14T13:19:48.383Z,67.95
2019-04-14T13:24:55.812Z,67.25
2019-04-14T13:30:01.568Z,66.45
2019-04-14T13:35:09.281Z,66.91
2019-04-14T13:40:17.453Z,66.12
2019-04-14T13:45:23.615Z,66.02
2019-04-14T13:50:29.900Z,65.46
2019-04-14T13:55:37.055Z,66.28
2019-04-14T14:00:45.008Z,64.53
2019-04-14T14:05:50.678Z,64.55
2019-04-14T14:11:03.713Z,64.48
2019-04-14T14:16:44.994Z,63.97
2019-04-14T14:22:01.107Z,63.87
2019-04-14T14:27:12.101Z,64.82
2019-04-14T14:32:32.292Z,63.62
2019-04-14T14:37:39.517Z,63.18
2019-04-14T14:42:45.556Z,64.85
2019-04-14T14:48:07.987Z,62.77
2019-04-14T14:53:15.949Z,63.26
2019-04-14T14:58:24.302Z,62.99
2019-04-14T15:03:30.941Z,63.50
2019-04-14T15:08:37.814Z,63.60
2019-04-14T15:13:43.798Z,62.51
2019-04-14T15:18:52.177Z,62.77
2019-04-14T15:24:00.399Z,63.62
2019-04-14T15:29:07.964Z,63.64
2019-04-14T15:34:26.176Z,62.49
2019-04-14T15:39:32.258Z,62.29
2019-04-14T15:44:38.534Z,61.89
2019-04-14T15:49:48.101Z,62.11
2019-04-14T15:54:53.940Z,62.09
2019-04-14T16:00:18.126Z,64.25
2019-04-14T16:05:28.954Z,64.88
2019-04-14T16:11:07.234Z,65.31
2019-04-14T16:16:28.831Z,63.96
2019-04-14T16:21:36.993Z,64.17
2019-04-14T16:26:53.440Z,64.29
2019-04-14T16:32:15.045Z,64.37
2019-04-14T16:37:22.242Z,63.47
2019-04-14T16:42:29.292Z,63.21
2019-04-14T16:47:36.341Z,63.89
2019-04-14T16:52:48.663Z,63.58
2019-04-14T16:58:16.173Z,63.90
2019-04-14T17:03:23.201Z,64.51
2019-04-14T17:08:30.064Z,65.46
2019-04-14T17:13:41.338Z,65.23
2019-04-14T17:19:00.374Z,65.00
2019-04-14T17:24:27.395Z,65.26
2019-04-14T17:29:38.992Z,65.30
2019-04-14T17:35:03.268Z,65.84
2019-04-14T17:40:27.205Z,65.76
2019-04-14T17:45:50.709Z,66.14
2019-04-14T17:51:11.190Z,66.17
2019-04-14T17:56:32.018Z,66.21
2019-04-14T18:01:57.939Z,66.25
2019-04-14T18:07:23.393Z,65.84
2019-04-14T18:12:35.882Z,66.60
2019-04-14T18:18:00.542Z,66.47
2019-04-14T18:23:11.330Z,66.11
2019-04-14T18:28:44.303Z,66.36
2019-04-14T18:34:22.010Z,66.12
2019-04-14T18:39:53.903Z,66.37
2019-04-14T18:45:28.238Z,66.46
2019-04-14T18:50:56.315Z,67.02
2019-04-14T18:56:21.450Z,67.95
2019-04-14T19:01:30.337Z,66.30
2019-04-14T19:06:36.295Z,66.22
2019-04-14T19:12:00.370Z,67.68
2019-04-14T19:17:18.152Z,66.91
2019-04-14T19:22:24.754Z,65.84
2019-04-14T19:27:33.355Z,66.91
2019-04-14T19:32:41.196Z,67.23
2019-04-14T19:37:47.216Z,68.34
2019-04-14T19:42:53.379Z,68.00
2019-04-14T19:48:00.093Z,67.45
2019-04-14T19:53:07.667Z,66.92
2019-04-14T19:58:15.382Z,67.94
2019-04-14T20:03:22.433Z,67.75
2019-04-14T20:08:29.709Z,67.53
2019-04-14T20:13:40.504Z,70.09
2019-04-14T20:19:18.497Z,69.76
2019-04-14T20:24:37.060Z,69.00
2019-04-14T20:29:49.172Z,69.27
2019-04-14T20:34:54.598Z,68.39
2019-04-14T20:40:00.575Z,68.68
2019-04-14T20:45:09.819Z,68.37
2019-04-14T20:50:17.037Z,68.04
2019-04-14T20:55:23.055Z,68.32
2019-04-14T21:00:28.674Z,68.08
2019-04-14T21:05:52.449Z,68.41
2019-04-14T21:11:04.938Z,67.84
2019-04-14T21:16:19.986Z,67.60
2019-04-14T21:21:34.217Z,66.25
2019-04-14T21:27:11.017Z,67.26
2019-04-14T21:32:29.692Z,67.94
2019-04-14T21:37:52.953Z,67.67
2019-04-14T21:42:58.721Z,66.14
2019-04-14T21:48:04.406Z,67.42
2019-04-14T21:53:10.140Z,67.50
2019-04-14T21:58:24.011Z,67.23
2019-04-14T22:03:54.714Z,67.14
2019-04-14T22:09:01.205Z,66.33
2019-04-14T22:14:08.346Z,67.02
2019-04-14T22:19:13.888Z,68.04
2019-04-14T22:24:19.825Z,67.62
2019-04-14T22:29:26.120Z,68.16
2019-04-14T22:34:33.593Z,67.38
2019-04-14T22:39:39.505Z,67.10
2019-04-14T22:44:45.376Z,67.14
2019-04-14T22:49:51.088Z,67.48
2019-04-14T22:54:56.876Z,68.67
2019-04-14T23:00:03.672Z,66.63
2019-04-14T23:05:36.426Z,66.68
2019-04-14T23:11:01.963Z,66.37
2019-04-14T23:16:31.497Z,66.46
2019-04-14T23:21:48.853Z,66.46
2019-04-14T23:26:54.548Z,66.21
2019-04-14T23:32:00.665Z,65.62
2019-04-14T23:37:07.376Z,66.61
2019-04-14T23:42:13.507Z,66.67
2019-04-14T23:47:19.075Z,66.15
2019-04-14T23:52:24.647Z,65.66
2019-04-14T23:57:31.053Z,66.09
